sensor_id;sensor_type;location;lat;lon;timestamp;P1;durP1;ratioP1;P2;durP2;ratioP2
12112;SDS011;6120;52.250;8.478;2023-12-04T00:00:03;31.20;;;13.05;;
12112;SDS011;6120;52.250;8.478;2023-12-04T00:02:30;33.20;;;13.90;;
12112;SDS011;6120;52.250;8.478;2023-12-04T00:04:57;32.95;;;12.57;;
12112;SDS011;6120;52.250;8.478;2023-12-04T00:07:24;29.15;;;12.65;;
12112;SDS011;6120;52.250;8.478;2023-12-04T00:09:50;25.80;;;11.50;;
12112;SDS011;6120;52.250;8.478;2023-12-04T00:12:17;30.40;;;12.23;;
12112;SDS011;6120;52.250;8.478;2023-12-04T00:14:44;28.95;;;12.60;;
12112;SDS011;6120;52.250;8.478;2023-12-04T00:17:10;31.65;;;13.07;;
12112;SDS011;6120;52.250;8.478;2023-12-04T00:19:37;28.58;;;12.77;;
12112;SDS011;6120;52.250;8.478;2023-12-04T00:22:04;29.17;;;12.07;;
12112;SDS011;6120;52.250;8.478;2023-12-04T00:24:31;26.60;;;11.98;;
12112;SDS011;6120;52.250;8.478;2023-12-04T00:26:57;30.02;;;13.30;;
12112;SDS011;6120;52.250;8.478;2023-12-04T00:29:24;30.02;;;11.75;;
12112;SDS011;6120;52.250;8.478;2023-12-04T00:31:51;29.00;;;12.65;;
12112;SDS011;6120;52.250;8.478;2023-12-04T00:34:17;27.73;;;12.43;;
12112;SDS011;6120;52.250;8.478;2023-12-04T00:36:44;28.60;;;11.55;;
12112;SDS011;6120;52.250;8.478;2023-12-04T00:39:11;25.75;;;11.77;;
12112;SDS011;6120;52.250;8.478;2023-12-04T00:41:38;27.58;;;12.15;;
12112;SDS011;6120;52.250;8.478;2023-12-04T00:44:05;26.92;;;12.20;;
12112;SDS011;6120;52.250;8.478;2023-12-04T00:46:31;26.98;;;11.48;;
12112;SDS011;6120;52.250;8.478;2023-12-04T00:48:58;29.73;;;12.20;;
12112;SDS011;6120;52.250;8.478;2023-12-04T00:51:25;26.13;;;11.68;;
12112;SDS011;6120;52.250;8.478;2023-12-04T00:53:52;25.08;;;10.98;;
12112;SDS011;6120;52.250;8.478;2023-12-04T00:56:19;27.95;;;11.82;;
12112;SDS011;6120;52.250;8.478;2023-12-04T00:58:46;24.63;;;11.23;;
12112;SDS011;6120;52.250;8.478;2023-12-04T01:01:13;25.50;;;10.82;;
12112;SDS011;6120;52.250;8.478;2023-12-04T01:03:40;28.67;;;11.50;;
12112;SDS011;6120;52.250;8.478;2023-12-04T01:06:07;24.85;;;10.57;;
12112;SDS011;6120;52.250;8.478;2023-12-04T01:08:33;23.90;;;10.35;;
12112;SDS011;6120;52.250;8.478;2023-12-04T01:11:00;24.20;;;10.48;;
12112;SDS011;6120;52.250;8.478;2023-12-04T01:13:27;25.48;;;10.90;;
12112;SDS011;6120;52.250;8.478;2023-12-04T01:15:53;22.98;;;10.75;;
12112;SDS011;6120;52.250;8.478;2023-12-04T01:18:20;24.40;;;11.02;;
12112;SDS011;6120;52.250;8.478;2023-12-04T01:20:47;24.50;;;10.38;;
12112;SDS011;6120;52.250;8.478;2023-12-04T01:23:14;24.90;;;11.23;;
12112;SDS011;6120;52.250;8.478;2023-12-04T01:25:40;23.02;;;10.20;;
12112;SDS011;6120;52.250;8.478;2023-12-04T01:28:07;22.25;;;10.27;;
12112;SDS011;6120;52.250;8.478;2023-12-04T01:30:34;21.00;;;9.52;;
12112;SDS011;6120;52.250;8.478;2023-12-04T01:33:00;22.30;;;9.57;;
12112;SDS011;6120;52.250;8.478;2023-12-04T01:35:27;22.00;;;10.57;;
12112;SDS011;6120;52.250;8.478;2023-12-04T01:37:55;20.02;;;9.10;;
12112;SDS011;6120;52.250;8.478;2023-12-04T01:40:21;24.17;;;9.73;;
12112;SDS011;6120;52.250;8.478;2023-12-04T01:42:48;20.92;;;9.73;;
12112;SDS011;6120;52.250;8.478;2023-12-04T01:45:15;23.85;;;10.63;;
12112;SDS011;6120;52.250;8.478;2023-12-04T01:47:41;24.10;;;10.07;;
12112;SDS011;6120;52.250;8.478;2023-12-04T01:50:10;22.33;;;10.18;;
12112;SDS011;6120;52.250;8.478;2023-12-04T01:52:37;21.80;;;9.18;;
12112;SDS011;6120;52.250;8.478;2023-12-04T01:55:04;24.42;;;10.13;;
12112;SDS011;6120;52.250;8.478;2023-12-04T01:57:32;20.85;;;9.15;;
12112;SDS011;6120;52.250;8.478;2023-12-04T01:59:59;25.90;;;10.20;;
12112;SDS011;6120;52.250;8.478;2023-12-04T02:02:29;19.88;;;9.75;;
12112;SDS011;6120;52.250;8.478;2023-12-04T02:04:56;21.25;;;10.07;;
12112;SDS011;6120;52.250;8.478;2023-12-04T02:07:23;19.83;;;9.80;;
12112;SDS011;6120;52.250;8.478;2023-12-04T02:09:50;22.20;;;10.10;;
12112;SDS011;6120;52.250;8.478;2023-12-04T02:12:17;20.52;;;9.45;;
12112;SDS011;6120;52.250;8.478;2023-12-04T02:17:12;21.95;;;9.00;;
12112;SDS011;6120;52.250;8.478;2023-12-04T02:19:39;20.48;;;9.05;;
12112;SDS011;6120;52.250;8.478;2023-12-04T02:22:06;20.80;;;9.90;;
12112;SDS011;6120;52.250;8.478;2023-12-04T02:24:32;21.42;;;9.50;;
12112;SDS011;6120;52.250;8.478;2023-12-04T02:27:10;22.95;;;10.02;;
12112;SDS011;6120;52.250;8.478;2023-12-04T02:29:44;21.80;;;9.35;;
12112;SDS011;6120;52.250;8.478;2023-12-04T02:32:14;24.67;;;10.98;;
12112;SDS011;6120;52.250;8.478;2023-12-04T02:34:42;20.33;;;9.65;;
12112;SDS011;6120;52.250;8.478;2023-12-04T02:37:10;22.17;;;10.13;;
12112;SDS011;6120;52.250;8.478;2023-12-04T02:39:37;24.50;;;11.02;;
12112;SDS011;6120;52.250;8.478;2023-12-04T02:42:04;27.92;;;11.80;;
12112;SDS011;6120;52.250;8.478;2023-12-04T02:44:32;23.60;;;10.27;;
12112;SDS011;6120;52.250;8.478;2023-12-04T02:46:59;22.73;;;10.52;;
12112;SDS011;6120;52.250;8.478;2023-12-04T02:49:26;25.40;;;10.73;;
12112;SDS011;6120;52.250;8.478;2023-12-04T02:51:53;23.08;;;10.07;;
12112;SDS011;6120;52.250;8.478;2023-12-04T02:54:19;24.50;;;10.90;;
12112;SDS011;6120;52.250;8.478;2023-12-04T02:56:46;23.38;;;11.98;;
12112;SDS011;6120;52.250;8.478;2023-12-04T02:59:13;22.48;;;10.55;;
12112;SDS011;6120;52.250;8.478;2023-12-04T03:01:40;28.70;;;12.73;;
12112;SDS011;6120;52.250;8.478;2023-12-04T03:04:06;26.92;;;11.77;;
12112;SDS011;6120;52.250;8.478;2023-12-04T03:06:33;27.05;;;12.05;;
12112;SDS011;6120;52.250;8.478;2023-12-04T03:09:00;23.75;;;11.63;;
12112;SDS011;6120;52.250;8.478;2023-12-04T03:11:27;27.73;;;12.32;;
12112;SDS011;6120;52.250;8.478;2023-12-04T03:13:53;25.27;;;11.68;;
12112;SDS011;6120;52.250;8.478;2023-12-04T03:16:20;23.13;;;10.90;;
12112;SDS011;6120;52.250;8.478;2023-12-04T03:18:47;24.77;;;11.07;;
12112;SDS011;6120;52.250;8.478;2023-12-04T03:21:13;31.50;;;13.85;;
12112;SDS011;6120;52.250;8.478;2023-12-04T03:23:40;26.55;;;11.80;;
12112;SDS011;6120;52.250;8.478;2023-12-04T03:26:07;27.98;;;11.43;;
12112;SDS011;6120;52.250;8.478;2023-12-04T03:28:33;26.30;;;11.63;;
12112;SDS011;6120;52.250;8.478;2023-12-04T03:31:01;27.50;;;12.02;;
12112;SDS011;6120;52.250;8.478;2023-12-04T03:33:28;23.27;;;11.85;;
12112;SDS011;6120;52.250;8.478;2023-12-04T03:35:55;28.25;;;12.65;;
12112;SDS011;6120;52.250;8.478;2023-12-04T03:38:22;26.48;;;11.38;;
12112;SDS011;6120;52.250;8.478;2023-12-04T03:40:48;26.27;;;11.57;;
12112;SDS011;6120;52.250;8.478;2023-12-04T03:43:15;25.80;;;11.35;;
12112;SDS011;6120;52.250;8.478;2023-12-04T03:45:42;23.02;;;11.15;;
12112;SDS011;6120;52.250;8.478;2023-12-04T03:48:09;25.13;;;11.23;;
12112;SDS011;6120;52.250;8.478;2023-12-04T03:50:36;24.45;;;11.10;;
12112;SDS011;6120;52.250;8.478;2023-12-04T03:53:02;24.58;;;11.18;;
12112;SDS011;6120;52.250;8.478;2023-12-04T03:55:29;25.15;;;10.93;;
12112;SDS011;6120;52.250;8.478;2023-12-04T03:57:56;24.40;;;11.27;;
12112;SDS011;6120;52.250;8.478;2023-12-04T04:00:23;24.33;;;11.20;;
12112;SDS011;6120;52.250;8.478;2023-12-04T04:02:50;23.92;;;11.30;;
12112;SDS011;6120;52.250;8.478;2023-12-04T04:05:17;27.30;;;11.60;;
12112;SDS011;6120;52.250;8.478;2023-12-04T04:07:44;18.98;;;9.45;;
12112;SDS011;6120;52.250;8.478;2023-12-04T04:10:10;24.00;;;11.00;;
12112;SDS011;6120;52.250;8.478;2023-12-04T04:12:38;22.20;;;10.40;;
12112;SDS011;6120;52.250;8.478;2023-12-04T04:15:05;25.75;;;11.13;;
12112;SDS011;6120;52.250;8.478;2023-12-04T04:17:33;25.75;;;11.10;;
12112;SDS011;6120;52.250;8.478;2023-12-04T04:20:00;23.23;;;10.50;;
12112;SDS011;6120;52.250;8.478;2023-12-04T04:22:26;25.27;;;11.38;;
12112;SDS011;6120;52.250;8.478;2023-12-04T04:24:54;23.23;;;10.98;;
12112;SDS011;6120;52.250;8.478;2023-12-04T04:27:23;20.92;;;10.18;;
12112;SDS011;6120;52.250;8.478;2023-12-04T04:29:49;24.05;;;11.18;;
12112;SDS011;6120;52.250;8.478;2023-12-04T04:32:16;24.05;;;10.68;;
12112;SDS011;6120;52.250;8.478;2023-12-04T04:34:42;23.65;;;10.45;;
12112;SDS011;6120;52.250;8.478;2023-12-04T04:37:09;23.55;;;10.60;;
12112;SDS011;6120;52.250;8.478;2023-12-04T04:39:36;20.90;;;9.80;;
12112;SDS011;6120;52.250;8.478;2023-12-04T04:42:03;22.83;;;10.10;;
12112;SDS011;6120;52.250;8.478;2023-12-04T04:44:30;22.00;;;11.18;;
12112;SDS011;6120;52.250;8.478;2023-12-04T04:46:56;19.92;;;9.63;;
12112;SDS011;6120;52.250;8.478;2023-12-04T04:49:23;20.90;;;9.98;;
12112;SDS011;6120;52.250;8.478;2023-12-04T04:51:50;22.95;;;10.50;;
12112;SDS011;6120;52.250;8.478;2023-12-04T04:54:17;22.98;;;10.45;;
12112;SDS011;6120;52.250;8.478;2023-12-04T04:56:44;20.85;;;10.00;;
12112;SDS011;6120;52.250;8.478;2023-12-04T04:59:10;23.08;;;11.00;;
12112;SDS011;6120;52.250;8.478;2023-12-04T05:01:37;22.73;;;9.95;;
12112;SDS011;6120;52.250;8.478;2023-12-04T05:04:04;21.80;;;10.18;;
12112;SDS011;6120;52.250;8.478;2023-12-04T05:06:30;20.63;;;10.45;;
12112;SDS011;6120;52.250;8.478;2023-12-04T05:08:57;19.67;;;8.73;;
12112;SDS011;6120;52.250;8.478;2023-12-04T05:11:24;24.48;;;10.02;;
12112;SDS011;6120;52.250;8.478;2023-12-04T05:13:51;23.10;;;10.18;;
12112;SDS011;6120;52.250;8.478;2023-12-04T05:16:17;22.63;;;9.93;;
12112;SDS011;6120;52.250;8.478;2023-12-04T05:18:44;18.95;;;9.15;;
12112;SDS011;6120;52.250;8.478;2023-12-04T05:21:11;19.65;;;9.23;;
12112;SDS011;6120;52.250;8.478;2023-12-04T05:23:38;21.75;;;10.68;;
12112;SDS011;6120;52.250;8.478;2023-12-04T05:26:05;22.73;;;9.88;;
12112;SDS011;6120;52.250;8.478;2023-12-04T05:28:33;18.52;;;8.65;;
12112;SDS011;6120;52.250;8.478;2023-12-04T05:31:00;17.90;;;9.33;;
12112;SDS011;6120;52.250;8.478;2023-12-04T05:33:27;23.75;;;10.73;;
12112;SDS011;6120;52.250;8.478;2023-12-04T05:35:54;19.85;;;9.50;;
12112;SDS011;6120;52.250;8.478;2023-12-04T05:38:20;19.17;;;9.30;;
12112;SDS011;6120;52.250;8.478;2023-12-04T05:40:47;18.77;;;9.40;;
12112;SDS011;6120;52.250;8.478;2023-12-04T05:43:15;19.77;;;9.32;;
12112;SDS011;6120;52.250;8.478;2023-12-04T05:45:41;20.00;;;8.73;;
12112;SDS011;6120;52.250;8.478;2023-12-04T05:48:08;21.50;;;9.75;;
12112;SDS011;6120;52.250;8.478;2023-12-04T05:50:35;20.98;;;9.05;;
12112;SDS011;6120;52.250;8.478;2023-12-04T05:53:01;16.23;;;8.13;;
12112;SDS011;6120;52.250;8.478;2023-12-04T05:55:28;17.17;;;8.55;;
12112;SDS011;6120;52.250;8.478;2023-12-04T05:57:55;18.33;;;9.13;;
12112;SDS011;6120;52.250;8.478;2023-12-04T06:00:22;17.83;;;8.77;;
12112;SDS011;6120;52.250;8.478;2023-12-04T06:02:52;15.75;;;8.23;;
12112;SDS011;6120;52.250;8.478;2023-12-04T06:05:19;21.98;;;10.38;;
12112;SDS011;6120;52.250;8.478;2023-12-04T06:07:46;19.10;;;8.48;;
12112;SDS011;6120;52.250;8.478;2023-12-04T06:10:13;17.20;;;8.25;;
12112;SDS011;6120;52.250;8.478;2023-12-04T06:12:39;17.58;;;7.93;;
12112;SDS011;6120;52.250;8.478;2023-12-04T06:15:07;18.98;;;8.75;;
12112;SDS011;6120;52.250;8.478;2023-12-04T06:17:34;18.90;;;8.55;;
12112;SDS011;6120;52.250;8.478;2023-12-04T06:20:01;18.63;;;8.75;;
12112;SDS011;6120;52.250;8.478;2023-12-04T06:22:27;15.05;;;8.10;;
12112;SDS011;6120;52.250;8.478;2023-12-04T06:24:54;16.17;;;7.85;;
12112;SDS011;6120;52.250;8.478;2023-12-04T06:27:21;17.95;;;8.43;;
12112;SDS011;6120;52.250;8.478;2023-12-04T06:29:48;16.23;;;7.55;;
12112;SDS011;6120;52.250;8.478;2023-12-04T06:32:18;16.33;;;7.70;;
12112;SDS011;6120;52.250;8.478;2023-12-04T06:34:46;16.88;;;8.20;;
12112;SDS011;6120;52.250;8.478;2023-12-04T06:37:13;16.35;;;7.78;;
12112;SDS011;6120;52.250;8.478;2023-12-04T06:39:40;17.48;;;8.70;;
12112;SDS011;6120;52.250;8.478;2023-12-04T06:42:07;18.40;;;8.45;;
12112;SDS011;6120;52.250;8.478;2023-12-04T06:47:02;14.98;;;8.02;;
12112;SDS011;6120;52.250;8.478;2023-12-04T06:49:30;15.85;;;7.88;;
12112;SDS011;6120;52.250;8.478;2023-12-04T06:51:58;15.35;;;7.65;;
12112;SDS011;6120;52.250;8.478;2023-12-04T06:54:26;18.85;;;8.88;;
12112;SDS011;6120;52.250;8.478;2023-12-04T06:56:53;16.83;;;7.90;;
12112;SDS011;6120;52.250;8.478;2023-12-04T06:59:20;18.27;;;8.07;;
12112;SDS011;6120;52.250;8.478;2023-12-04T07:01:47;16.48;;;7.40;;
12112;SDS011;6120;52.250;8.478;2023-12-04T07:04:14;16.10;;;7.65;;
12112;SDS011;6120;52.250;8.478;2023-12-04T07:06:47;21.73;;;8.10;;
12112;SDS011;6120;52.250;8.478;2023-12-04T07:09:15;14.73;;;7.95;;
12112;SDS011;6120;52.250;8.478;2023-12-04T07:11:43;15.05;;;7.40;;
12112;SDS011;6120;52.250;8.478;2023-12-04T07:14:10;15.00;;;7.57;;
12112;SDS011;6120;52.250;8.478;2023-12-04T07:16:42;14.63;;;7.60;;
12112;SDS011;6120;52.250;8.478;2023-12-04T07:19:09;18.52;;;8.40;;
12112;SDS011;6120;52.250;8.478;2023-12-04T07:21:37;16.60;;;7.80;;
12112;SDS011;6120;52.250;8.478;2023-12-04T07:24:04;17.52;;;8.07;;
12112;SDS011;6120;52.250;8.478;2023-12-04T07:26:31;15.98;;;7.80;;
12112;SDS011;6120;52.250;8.478;2023-12-04T07:28:59;16.45;;;8.27;;
12112;SDS011;6120;52.250;8.478;2023-12-04T07:31:26;14.05;;;7.47;;
12112;SDS011;6120;52.250;8.478;2023-12-04T07:33:56;18.08;;;8.48;;
12112;SDS011;6120;52.250;8.478;2023-12-04T07:36:23;17.38;;;8.00;;
12112;SDS011;6120;52.250;8.478;2023-12-04T07:38:51;18.55;;;9.10;;
12112;SDS011;6120;52.250;8.478;2023-12-04T07:41:20;15.57;;;7.65;;
12112;SDS011;6120;52.250;8.478;2023-12-04T07:43:48;16.58;;;8.05;;
12112;SDS011;6120;52.250;8.478;2023-12-04T07:46:14;16.48;;;7.18;;
12112;SDS011;6120;52.250;8.478;2023-12-04T07:48:41;18.83;;;8.85;;
12112;SDS011;6120;52.250;8.478;2023-12-04T07:51:10;15.75;;;8.10;;
12112;SDS011;6120;52.250;8.478;2023-12-04T07:53:36;18.08;;;8.70;;
12112;SDS011;6120;52.250;8.478;2023-12-04T07:56:03;18.38;;;8.25;;
12112;SDS011;6120;52.250;8.478;2023-12-04T07:58:31;16.42;;;7.97;;
12112;SDS011;6120;52.250;8.478;2023-12-04T08:00:58;14.82;;;7.78;;
12112;SDS011;6120;52.250;8.478;2023-12-04T08:03:25;18.27;;;8.38;;
12112;SDS011;6120;52.250;8.478;2023-12-04T08:05:53;16.23;;;7.22;;
12112;SDS011;6120;52.250;8.478;2023-12-04T08:08:20;18.30;;;8.90;;
12112;SDS011;6120;52.250;8.478;2023-12-04T08:10:47;17.67;;;8.40;;
12112;SDS011;6120;52.250;8.478;2023-12-04T08:13:14;13.98;;;6.95;;
12112;SDS011;6120;52.250;8.478;2023-12-04T08:15:42;15.98;;;7.60;;
12112;SDS011;6120;52.250;8.478;2023-12-04T08:18:10;17.95;;;7.97;;
12112;SDS011;6120;52.250;8.478;2023-12-04T08:20:37;15.27;;;7.45;;
12112;SDS011;6120;52.250;8.478;2023-12-04T08:23:06;15.55;;;7.82;;
12112;SDS011;6120;52.250;8.478;2023-12-04T08:25:34;13.07;;;6.78;;
12112;SDS011;6120;52.250;8.478;2023-12-04T08:28:03;13.93;;;6.93;;
12112;SDS011;6120;52.250;8.478;2023-12-04T08:30:30;13.68;;;7.05;;
12112;SDS011;6120;52.250;8.478;2023-12-04T08:32:56;15.07;;;7.68;;
12112;SDS011;6120;52.250;8.478;2023-12-04T08:35:23;15.48;;;7.57;;
12112;SDS011;6120;52.250;8.478;2023-12-04T08:37:50;16.08;;;7.65;;
12112;SDS011;6120;52.250;8.478;2023-12-04T08:40:17;14.15;;;7.03;;
12112;SDS011;6120;52.250;8.478;2023-12-04T08:42:44;16.05;;;7.50;;
12112;SDS011;6120;52.250;8.478;2023-12-04T08:45:11;14.07;;;7.22;;
12112;SDS011;6120;52.250;8.478;2023-12-04T08:47:38;20.23;;;7.35;;
12112;SDS011;6120;52.250;8.478;2023-12-04T08:50:06;13.95;;;7.25;;
12112;SDS011;6120;52.250;8.478;2023-12-04T08:52:33;13.57;;;7.18;;
12112;SDS011;6120;52.250;8.478;2023-12-04T08:55:00;14.98;;;7.35;;
12112;SDS011;6120;52.250;8.478;2023-12-04T08:57:27;16.65;;;9.57;;
12112;SDS011;6120;52.250;8.478;2023-12-04T08:59:54;15.07;;;7.68;;
12112;SDS011;6120;52.250;8.478;2023-12-04T09:02:20;16.40;;;7.60;;
12112;SDS011;6120;52.250;8.478;2023-12-04T09:04:47;13.48;;;7.10;;
12112;SDS011;6120;52.250;8.478;2023-12-04T09:07:14;14.70;;;6.40;;
12112;SDS011;6120;52.250;8.478;2023-12-04T09:09:44;17.25;;;8.50;;
12112;SDS011;6120;52.250;8.478;2023-12-04T09:12:13;19.25;;;8.98;;
12112;SDS011;6120;52.250;8.478;2023-12-04T09:14:40;20.98;;;9.57;;
12112;SDS011;6120;52.250;8.478;2023-12-04T09:17:07;19.00;;;9.20;;
12112;SDS011;6120;52.250;8.478;2023-12-04T09:19:34;90.07;;;35.13;;
12112;SDS011;6120;52.250;8.478;2023-12-04T09:22:01;22.73;;;11.98;;
12112;SDS011;6120;52.250;8.478;2023-12-04T09:24:42;19.08;;;8.88;;
12112;SDS011;6120;52.250;8.478;2023-12-04T09:27:08;17.15;;;8.18;;
12112;SDS011;6120;52.250;8.478;2023-12-04T09:29:35;18.52;;;8.85;;
12112;SDS011;6120;52.250;8.478;2023-12-04T09:32:02;15.43;;;7.82;;
12112;SDS011;6120;52.250;8.478;2023-12-04T09:34:29;17.15;;;8.40;;
12112;SDS011;6120;52.250;8.478;2023-12-04T09:36:55;18.83;;;8.70;;
12112;SDS011;6120;52.250;8.478;2023-12-04T09:39:34;16.65;;;9.77;;
12112;SDS011;6120;52.250;8.478;2023-12-04T09:42:01;16.15;;;7.93;;
12112;SDS011;6120;52.250;8.478;2023-12-04T09:44:28;17.52;;;8.30;;
12112;SDS011;6120;52.250;8.478;2023-12-04T09:46:54;17.73;;;8.27;;
12112;SDS011;6120;52.250;8.478;2023-12-04T09:49:22;17.50;;;8.68;;
12112;SDS011;6120;52.250;8.478;2023-12-04T09:51:49;15.90;;;8.63;;
12112;SDS011;6120;52.250;8.478;2023-12-04T09:54:16;14.15;;;7.18;;
12112;SDS011;6120;52.250;8.478;2023-12-04T09:56:46;14.38;;;7.68;;
12112;SDS011;6120;52.250;8.478;2023-12-04T09:59:13;14.35;;;7.82;;
12112;SDS011;6120;52.250;8.478;2023-12-04T10:01:40;14.77;;;7.72;;
12112;SDS011;6120;52.250;8.478;2023-12-04T10:04:07;15.50;;;7.47;;
12112;SDS011;6120;52.250;8.478;2023-12-04T10:06:34;14.52;;;7.57;;
12112;SDS011;6120;52.250;8.478;2023-12-04T10:09:03;15.07;;;8.07;;
12112;SDS011;6120;52.250;8.478;2023-12-04T10:11:29;14.43;;;7.93;;
12112;SDS011;6120;52.250;8.478;2023-12-04T10:13:57;15.98;;;7.60;;
12112;SDS011;6120;52.250;8.478;2023-12-04T10:16:35;13.73;;;7.35;;
12112;SDS011;6120;52.250;8.478;2023-12-04T10:19:37;16.43;;;8.00;;
12112;SDS011;6120;52.250;8.478;2023-12-04T10:21:58;17.58;;;10.10;;
12112;SDS011;6120;52.250;8.478;2023-12-04T10:26:56;14.27;;;7.13;;
12112;SDS011;6120;52.250;8.478;2023-12-04T10:29:26;15.05;;;7.93;;
12112;SDS011;6120;52.250;8.478;2023-12-04T10:31:53;12.18;;;7.13;;
12112;SDS011;6120;52.250;8.478;2023-12-04T10:36:52;15.27;;;7.53;;
12112;SDS011;6120;52.250;8.478;2023-12-04T10:39:19;13.90;;;7.47;;
12112;SDS011;6120;52.250;8.478;2023-12-04T10:41:48;13.60;;;6.80;;
12112;SDS011;6120;52.250;8.478;2023-12-04T10:44:26;12.68;;;7.18;;
12112;SDS011;6120;52.250;8.478;2023-12-04T10:46:53;14.65;;;6.43;;
12112;SDS011;6120;52.250;8.478;2023-12-04T10:49:25;13.98;;;7.38;;
12112;SDS011;6120;52.250;8.478;2023-12-04T10:51:55;13.88;;;7.28;;
12112;SDS011;6120;52.250;8.478;2023-12-04T10:54:23;15.60;;;7.55;;
12112;SDS011;6120;52.250;8.478;2023-12-04T10:56:51;13.63;;;7.20;;
12112;SDS011;6120;52.250;8.478;2023-12-04T10:59:21;16.92;;;7.55;;
12112;SDS011;6120;52.250;8.478;2023-12-04T11:01:53;12.75;;;7.30;;
12112;SDS011;6120;52.250;8.478;2023-12-04T11:04:23;15.43;;;6.85;;
12112;SDS011;6120;52.250;8.478;2023-12-04T11:06:52;13.65;;;6.72;;
12112;SDS011;6120;52.250;8.478;2023-12-04T11:09:22;14.60;;;7.25;;
12112;SDS011;6120;52.250;8.478;2023-12-04T11:11:55;13.15;;;7.05;;
12112;SDS011;6120;52.250;8.478;2023-12-04T11:14:25;16.05;;;7.72;;
12112;SDS011;6120;52.250;8.478;2023-12-04T11:17:04;13.52;;;7.60;;
12112;SDS011;6120;52.250;8.478;2023-12-04T11:19:35;13.20;;;7.10;;
12112;SDS011;6120;52.250;8.478;2023-12-04T11:22:07;14.70;;;6.90;;
12112;SDS011;6120;52.250;8.478;2023-12-04T11:24:34;13.50;;;6.65;;
12112;SDS011;6120;52.250;8.478;2023-12-04T11:27:02;14.23;;;6.97;;
12112;SDS011;6120;52.250;8.478;2023-12-04T11:29:29;13.68;;;6.70;;
12112;SDS011;6120;52.250;8.478;2023-12-04T11:31:56;13.00;;;7.07;;
12112;SDS011;6120;52.250;8.478;2023-12-04T11:34:24;12.65;;;6.40;;
12112;SDS011;6120;52.250;8.478;2023-12-04T11:36:51;15.15;;;6.53;;
12112;SDS011;6120;52.250;8.478;2023-12-04T11:39:18;16.20;;;7.68;;
12112;SDS011;6120;52.250;8.478;2023-12-04T11:41:46;12.32;;;6.82;;
12112;SDS011;6120;52.250;8.478;2023-12-04T11:44:13;12.52;;;6.28;;
12112;SDS011;6120;52.250;8.478;2023-12-04T11:46:56;14.48;;;6.95;;
12112;SDS011;6120;52.250;8.478;2023-12-04T11:49:29;14.93;;;6.75;;
12112;SDS011;6120;52.250;8.478;2023-12-04T11:52:01;12.63;;;6.40;;
12112;SDS011;6120;52.250;8.478;2023-12-04T11:54:55;11.05;;;6.18;;
12112;SDS011;6120;52.250;8.478;2023-12-04T11:57:32;14.80;;;7.43;;
12112;SDS011;6120;52.250;8.478;2023-12-04T12:05:38;13.95;;;7.00;;
12112;SDS011;6120;52.250;8.478;2023-12-04T12:08:08;13.20;;;6.65;;
12112;SDS011;6120;52.250;8.478;2023-12-04T12:10:34;12.65;;;6.22;;
12112;SDS011;6120;52.250;8.478;2023-12-04T12:13:01;12.35;;;7.03;;
12112;SDS011;6120;52.250;8.478;2023-12-04T12:15:28;13.38;;;6.90;;
12112;SDS011;6120;52.250;8.478;2023-12-04T12:17:55;12.73;;;6.93;;
12112;SDS011;6120;52.250;8.478;2023-12-04T12:20:22;12.35;;;7.25;;
12112;SDS011;6120;52.250;8.478;2023-12-04T12:22:49;13.18;;;6.57;;
12112;SDS011;6120;52.250;8.478;2023-12-04T12:25:16;13.15;;;6.38;;
12112;SDS011;6120;52.250;8.478;2023-12-04T12:27:44;12.20;;;6.82;;
12112;SDS011;6120;52.250;8.478;2023-12-04T12:30:12;13.82;;;6.95;;
12112;SDS011;6120;52.250;8.478;2023-12-04T12:32:39;11.23;;;6.40;;
12112;SDS011;6120;52.250;8.478;2023-12-04T12:35:06;13.50;;;6.60;;
12112;SDS011;6120;52.250;8.478;2023-12-04T12:37:34;11.75;;;6.90;;
12112;SDS011;6120;52.250;8.478;2023-12-04T12:40:02;15.43;;;6.72;;
12112;SDS011;6120;52.250;8.478;2023-12-04T12:42:31;12.32;;;6.90;;
12112;SDS011;6120;52.250;8.478;2023-12-04T12:45:00;11.20;;;6.10;;
12112;SDS011;6120;52.250;8.478;2023-12-04T12:47:28;14.75;;;6.30;;
12112;SDS011;6120;52.250;8.478;2023-12-04T12:49:56;11.13;;;5.97;;
12112;SDS011;6120;52.250;8.478;2023-12-04T12:52:23;12.57;;;6.45;;
12112;SDS011;6120;52.250;8.478;2023-12-04T12:54:49;13.10;;;6.78;;
12112;SDS011;6120;52.250;8.478;2023-12-04T12:57:16;10.32;;;5.90;;
12112;SDS011;6120;52.250;8.478;2023-12-04T12:59:43;12.93;;;6.13;;
12112;SDS011;6120;52.250;8.478;2023-12-04T13:02:10;12.13;;;6.15;;
12112;SDS011;6120;52.250;8.478;2023-12-04T13:04:41;11.90;;;6.18;;
12112;SDS011;6120;52.250;8.478;2023-12-04T13:07:08;9.95;;;5.78;;
12112;SDS011;6120;52.250;8.478;2023-12-04T13:09:36;12.20;;;6.53;;
12112;SDS011;6120;52.250;8.478;2023-12-04T13:12:03;11.15;;;6.30;;
12112;SDS011;6120;52.250;8.478;2023-12-04T13:14:31;11.80;;;6.60;;
12112;SDS011;6120;52.250;8.478;2023-12-04T13:17:01;11.98;;;6.13;;
12112;SDS011;6120;52.250;8.478;2023-12-04T13:19:28;10.50;;;5.30;;
12112;SDS011;6120;52.250;8.478;2023-12-04T13:21:55;10.07;;;5.82;;
12112;SDS011;6120;52.250;8.478;2023-12-04T13:24:21;10.50;;;5.75;;
12112;SDS011;6120;52.250;8.478;2023-12-04T13:26:48;11.20;;;5.80;;
12112;SDS011;6120;52.250;8.478;2023-12-04T13:29:15;10.70;;;5.75;;
12112;SDS011;6120;52.250;8.478;2023-12-04T13:31:45;15.48;;;5.97;;
12112;SDS011;6120;52.250;8.478;2023-12-04T13:34:17;11.85;;;5.93;;
12112;SDS011;6120;52.250;8.478;2023-12-04T13:36:44;11.18;;;5.90;;
12112;SDS011;6120;52.250;8.478;2023-12-04T13:39:11;12.02;;;5.65;;
12112;SDS011;6120;52.250;8.478;2023-12-04T13:41:46;12.07;;;6.25;;
12112;SDS011;6120;52.250;8.478;2023-12-04T13:46:59;10.15;;;5.70;;
12112;SDS011;6120;52.250;8.478;2023-12-04T13:49:26;12.82;;;5.85;;
12112;SDS011;6120;52.250;8.478;2023-12-04T13:51:53;10.32;;;5.47;;
12112;SDS011;6120;52.250;8.478;2023-12-04T13:54:21;13.57;;;6.37;;
12112;SDS011;6120;52.250;8.478;2023-12-04T13:56:54;14.00;;;6.18;;
12112;SDS011;6120;52.250;8.478;2023-12-04T13:59:23;13.02;;;6.07;;
12112;SDS011;6120;52.250;8.478;2023-12-04T14:01:50;11.73;;;5.50;;
12112;SDS011;6120;52.250;8.478;2023-12-04T14:04:18;10.43;;;5.57;;
12112;SDS011;6120;52.250;8.478;2023-12-04T14:06:46;11.73;;;5.55;;
12112;SDS011;6120;52.250;8.478;2023-12-04T14:09:14;14.13;;;6.10;;
12112;SDS011;6120;52.250;8.478;2023-12-04T14:11:44;11.20;;;5.80;;
12112;SDS011;6120;52.250;8.478;2023-12-04T14:14:11;10.02;;;5.60;;
12112;SDS011;6120;52.250;8.478;2023-12-04T14:16:39;14.60;;;6.18;;
12112;SDS011;6120;52.250;8.478;2023-12-04T14:19:07;10.55;;;5.38;;
12112;SDS011;6120;52.250;8.478;2023-12-04T14:21:34;10.82;;;5.47;;
12112;SDS011;6120;52.250;8.478;2023-12-04T14:24:01;9.48;;;5.28;;
12112;SDS011;6120;52.250;8.478;2023-12-04T14:26:27;10.77;;;5.88;;
12112;SDS011;6120;52.250;8.478;2023-12-04T14:28:54;9.52;;;5.65;;
12112;SDS011;6120;52.250;8.478;2023-12-04T14:31:23;9.55;;;5.25;;
12112;SDS011;6120;52.250;8.478;2023-12-04T14:33:50;11.70;;;6.22;;
12112;SDS011;6120;52.250;8.478;2023-12-04T14:36:16;12.13;;;5.85;;
12112;SDS011;6120;52.250;8.478;2023-12-04T14:38:43;11.30;;;5.78;;
12112;SDS011;6120;52.250;8.478;2023-12-04T14:41:10;9.80;;;5.82;;
12112;SDS011;6120;52.250;8.478;2023-12-04T14:43:37;10.52;;;5.53;;
12112;SDS011;6120;52.250;8.478;2023-12-04T14:46:05;13.57;;;5.90;;
12112;SDS011;6120;52.250;8.478;2023-12-04T14:48:35;11.07;;;5.60;;
12112;SDS011;6120;52.250;8.478;2023-12-04T14:51:03;9.45;;;5.53;;
12112;SDS011;6120;52.250;8.478;2023-12-04T14:53:31;9.48;;;5.50;;
12112;SDS011;6120;52.250;8.478;2023-12-04T14:58:57;9.27;;;5.27;;
12112;SDS011;6120;52.250;8.478;2023-12-04T15:01:56;11.70;;;6.32;;
12112;SDS011;6120;52.250;8.478;2023-12-04T15:04:41;11.52;;;5.95;;
12112;SDS011;6120;52.250;8.478;2023-12-04T15:07:27;11.63;;;5.65;;